createdAt,value
2018-12-14T00:01:05.022Z,14.53
2018-12-14T00:03:33.369Z,13.77
2018-12-14T00:06:01.826Z,15.80
2018-12-14T00:08:30.267Z,14.60
2018-12-14T00:10:58.776Z,14.57
2018-12-14T00:13:27.117Z,16.57
2018-12-14T00:15:55.462Z,15.33
2018-12-14T00:18:23.769Z,17.70
2018-12-14T00:20:52.340Z,13.57
2018-12-14T00:23:21.178Z,14.67
2018-12-14T00:25:50.081Z,15.00
2018-12-14T00:28:18.557Z,18.37
2018-12-14T00:30:46.864Z,18.97
2018-12-14T00:33:15.175Z,16.50
2018-12-14T00:35:43.932Z,13.10
2018-12-14T00:38:12.249Z,12.70
2018-12-14T00:40:40.695Z,13.50
2018-12-14T00:43:09.012Z,15.13
2018-12-14T00:45:38.164Z,13.73
2018-12-14T00:48:06.558Z,14.23
2018-12-14T00:50:34.909Z,13.10
2018-12-14T00:53:03.277Z,14.50
2018-12-14T00:55:32.241Z,14.17
2018-12-14T00:58:00.721Z,11.97
2018-12-14T01:00:29.099Z,13.47
2018-12-14T01:02:57.590Z,13.53
2018-12-14T01:05:26.047Z,13.60
2018-12-14T01:07:54.406Z,14.10
2018-12-14T01:10:22.927Z,12.97
2018-12-14T01:12:51.216Z,12.60
2018-12-14T01:15:20.170Z,14.10
2018-12-14T01:17:49.258Z,13.57
2018-12-14T01:20:17.676Z,14.60
2018-12-14T01:22:45.973Z,13.50
2018-12-14T01:25:14.339Z,13.67
2018-12-14T01:27:42.658Z,14.17
2018-12-14T01:30:11.592Z,14.23
2018-12-14T01:32:40.654Z,14.53
2018-12-14T01:35:09.080Z,13.67
2018-12-14T01:37:37.408Z,15.13
2018-12-14T01:40:06.233Z,14.10
2018-12-14T01:42:35.593Z,14.23
2018-12-14T01:45:04.353Z,14.70
2018-12-14T01:47:32.752Z,15.77
2018-12-14T01:50:01.566Z,15.33
2018-12-14T01:52:30.250Z,13.97
2018-12-14T01:54:58.702Z,13.57
2018-12-14T01:57:27.982Z,14.77
2018-12-14T01:59:56.279Z,13.60
2018-12-14T02:02:24.672Z,13.40
2018-12-14T02:04:53.069Z,14.90
2018-12-14T02:07:21.360Z,13.83
2018-12-14T02:09:49.752Z,14.70
2018-12-14T02:12:18.152Z,12.90
2018-12-14T02:14:46.474Z,13.33
2018-12-14T02:17:15.174Z,12.73
2018-12-14T02:19:44.058Z,14.07
2018-12-14T02:22:12.369Z,13.70
2018-12-14T02:24:40.694Z,14.17
2018-12-14T02:27:09.096Z,14.10
2018-12-14T02:29:37.396Z,12.63
2018-12-14T02:32:06.309Z,13.27
2018-12-14T02:34:34.601Z,14.03
2018-12-14T02:37:02.899Z,13.80
2018-12-14T02:39:31.193Z,14.53
2018-12-14T02:41:59.511Z,14.57
2018-12-14T02:44:28.144Z,14.37
2018-12-14T02:46:56.611Z,13.33
2018-12-14T02:49:25.877Z,14.97
2018-12-14T02:51:54.784Z,14.83
2018-12-14T02:54:23.924Z,14.33
2018-12-14T02:56:52.870Z,14.20
2018-12-14T02:59:21.756Z,17.47
2018-12-14T03:01:50.064Z,15.17
2018-12-14T03:04:18.387Z,16.73
2018-12-14T03:06:46.678Z,15.07
2018-12-14T03:09:14.962Z,16.50
2018-12-14T03:11:43.231Z,17.80
2018-12-14T03:14:11.512Z,18.17
2018-12-14T03:16:39.850Z,15.33
2018-12-14T03:19:09.143Z,14.67
2018-12-14T03:21:37.726Z,15.07
2018-12-14T03:24:06.046Z,16.00
2018-12-14T03:26:34.384Z,15.33
2018-12-14T03:29:02.739Z,14.97
2018-12-14T03:31:31.297Z,15.27
2018-12-14T03:34:00.234Z,16.07
2018-12-14T03:36:28.561Z,15.93
2018-12-14T03:38:56.834Z,15.43
2018-12-14T03:41:26.031Z,16.23
2018-12-14T03:43:54.329Z,16.07
2018-12-14T03:46:22.803Z,15.80
2018-12-14T03:48:51.174Z,18.00
2018-12-14T03:51:23.681Z,17.73
2018-12-14T03:53:51.998Z,15.87
2018-12-14T03:56:20.298Z,16.17
2018-12-14T03:58:49.325Z,17.10
2018-12-14T04:01:17.777Z,15.90
2018-12-14T04:03:46.171Z,16.37
2018-12-14T04:06:14.569Z,15.70
2018-12-14T04:08:43.371Z,16.47
2018-12-14T04:11:11.702Z,15.47
2018-12-14T04:13:40.502Z,16.30
2018-12-14T04:16:08.864Z,16.33
2018-12-14T04:18:37.234Z,16.33
2018-12-14T04:21:05.658Z,15.97
2018-12-14T04:23:34.009Z,16.80
2018-12-14T04:26:02.497Z,17.20
2018-12-14T04:28:30.797Z,15.97
2018-12-14T04:30:59.710Z,16.53
2018-12-14T04:33:28.285Z,16.63
2018-12-14T04:35:56.626Z,16.50
2018-12-14T04:38:25.032Z,16.10
2018-12-14T04:40:53.443Z,16.43
2018-12-14T04:43:21.769Z,16.53
2018-12-14T04:45:50.028Z,16.97
2018-12-14T04:48:18.368Z,16.50
2018-12-14T04:50:46.680Z,17.27
2018-12-14T04:53:14.961Z,17.53
2018-12-14T04:55:43.301Z,17.87
2018-12-14T04:58:11.577Z,17.90
2018-12-14T05:00:39.930Z,18.43
2018-12-14T05:03:08.712Z,18.23
2018-12-14T05:05:37.026Z,18.53
2018-12-14T05:08:05.410Z,17.60
2018-12-14T05:10:34.258Z,18.67
2018-12-14T05:13:03.182Z,18.97
2018-12-14T05:15:31.509Z,18.67
2018-12-14T05:17:59.836Z,19.60
2018-12-14T05:20:28.224Z,18.37
2018-12-14T05:22:56.746Z,19.23
2018-12-14T05:25:25.041Z,19.40
2018-12-14T05:27:53.441Z,19.97
2018-12-14T05:30:21.957Z,19.90
2018-12-14T05:32:50.303Z,19.80
2018-12-14T05:35:18.764Z,20.63
2018-12-14T05:37:47.442Z,20.47
2018-12-14T05:40:15.825Z,20.53
2018-12-14T05:42:44.126Z,18.93
2018-12-14T05:45:12.605Z,20.60
2018-12-14T05:47:41.001Z,21.43
2018-12-14T05:50:09.466Z,21.60
2018-12-14T05:52:37.809Z,21.67
2018-12-14T05:55:06.422Z,20.83
2018-12-14T05:57:34.917Z,20.97
2018-12-14T06:00:03.497Z,20.33
2018-12-14T06:02:31.801Z,21.00
2018-12-14T06:05:00.118Z,20.73
2018-12-14T06:07:28.456Z,20.60
2018-12-14T06:09:56.893Z,20.43
2018-12-14T06:12:25.325Z,21.37
2018-12-14T06:14:53.767Z,20.20
2018-12-14T06:17:22.132Z,19.67
2018-12-14T06:19:51.061Z,19.57
2018-12-14T06:22:19.921Z,20.67
2018-12-14T06:24:48.203Z,19.80
2018-12-14T06:27:16.657Z,19.43
2018-12-14T06:29:45.063Z,20.00
2018-12-14T06:32:13.441Z,19.60
2018-12-14T06:34:42.395Z,20.60
2018-12-14T06:37:11.998Z,21.00
2018-12-14T06:39:40.333Z,21.20
2018-12-14T06:42:08.936Z,20.43
2018-12-14T06:44:37.225Z,19.80
2018-12-14T06:47:05.589Z,20.00
2018-12-14T06:49:34.650Z,19.67
2018-12-14T06:52:02.970Z,19.17
2018-12-14T06:54:31.346Z,19.73
2018-12-14T06:56:59.672Z,19.07
2018-12-14T06:59:28.050Z,20.40
2018-12-14T07:01:56.506Z,20.43
2018-12-14T07:04:24.931Z,18.67
2018-12-14T07:06:53.207Z,20.17
2018-12-14T07:09:21.537Z,19.70
2018-12-14T07:11:49.832Z,19.27
2018-12-14T07:14:18.912Z,19.67
2018-12-14T07:16:47.205Z,18.47
2018-12-14T07:19:15.561Z,19.03
2018-12-14T07:21:44.576Z,18.97
2018-12-14T07:24:13.275Z,19.77
2018-12-14T07:26:42.027Z,20.03
2018-12-14T07:29:10.404Z,19.00
2018-12-14T07:31:38.885Z,19.33
2018-12-14T07:34:07.476Z,18.97
2018-12-14T07:36:35.788Z,19.13
2018-12-14T07:39:06.208Z,19.90
2018-12-14T07:41:34.668Z,19.17
2018-12-14T07:44:03.093Z,18.83
2018-12-14T07:46:31.522Z,18.73
2018-12-14T07:48:59.788Z,19.60
2018-12-14T07:51:28.306Z,19.87
2018-12-14T07:53:56.670Z,20.03
2018-12-14T07:56:25.075Z,20.43
2018-12-14T07:58:53.652Z,19.67
2018-12-14T08:01:22.151Z,21.73
2018-12-14T08:03:50.559Z,20.93
2018-12-14T08:06:18.961Z,20.87
2018-12-14T08:08:48.195Z,21.13
2018-12-14T08:11:16.585Z,19.87
2018-12-14T08:13:45.980Z,20.27
2018-12-14T08:16:14.392Z,20.43
2018-12-14T08:18:42.677Z,20.47
2018-12-14T08:21:11.106Z,19.87
2018-12-14T08:23:40.202Z,20.20
2018-12-14T08:26:09.114Z,20.50
2018-12-14T08:28:37.525Z,19.17
2018-12-14T08:31:05.945Z,20.40
2018-12-14T08:33:35.943Z,18.60
2018-12-14T08:36:04.379Z,19.87
2018-12-14T08:38:32.722Z,19.87
2018-12-14T08:41:01.222Z,18.50
2018-12-14T08:43:29.626Z,18.73
2018-12-14T08:45:57.912Z,19.00
2018-12-14T08:48:26.221Z,18.87
2018-12-14T08:50:54.524Z,18.87
2018-12-14T08:53:23.729Z,18.90
2018-12-14T08:55:52.130Z,18.77
2018-12-14T08:58:20.396Z,20.10
2018-12-14T09:00:48.726Z,19.10
2018-12-14T09:03:17.284Z,19.37
2018-12-14T09:05:45.592Z,19.20
2018-12-14T09:08:13.999Z,19.20
2018-12-14T09:10:42.302Z,18.80
2018-12-14T09:13:10.749Z,18.43
2018-12-14T09:15:39.078Z,17.60
2018-12-14T09:18:08.198Z,17.57
2018-12-14T09:20:36.489Z,18.57
2018-12-14T09:23:06.115Z,16.63
2018-12-14T09:25:34.539Z,17.80
2018-12-14T09:28:02.921Z,17.20
2018-12-14T09:30:31.330Z,17.30
2018-12-14T09:32:59.706Z,17.83
2018-12-14T09:35:28.049Z,17.17
2018-12-14T09:37:56.915Z,16.67
2018-12-14T09:40:25.984Z,17.47
2018-12-14T09:42:54.276Z,17.20
2018-12-14T09:45:22.759Z,16.80
2018-12-14T09:47:51.178Z,16.70
2018-12-14T09:50:20.579Z,17.67
2018-12-14T09:52:48.911Z,15.17
2018-12-14T09:55:17.233Z,17.17
2018-12-14T09:57:46.281Z,14.90
2018-12-14T10:00:14.691Z,14.93
2018-12-14T10:02:43.026Z,14.87
2018-12-14T10:05:11.539Z,14.73
2018-12-14T10:07:39.942Z,14.30
2018-12-14T10:10:15.793Z,14.10
2018-12-14T10:12:44.140Z,13.70
2018-12-14T10:15:12.739Z,13.03
2018-12-14T10:17:41.070Z,13.80
2018-12-14T10:20:10.338Z,13.20
2018-12-14T10:22:41.646Z,14.20
2018-12-14T10:25:09.705Z,12.07
2018-12-14T10:27:38.185Z,12.20
2018-12-14T10:30:06.840Z,12.37
2018-12-14T10:32:35.205Z,12.27
2018-12-14T10:35:03.771Z,11.90
2018-12-14T10:37:32.065Z,12.00
2018-12-14T10:40:00.429Z,11.33
2018-12-14T10:42:28.746Z,10.50
2018-12-14T10:44:57.258Z,10.37
2018-12-14T10:47:25.664Z,11.03
2018-12-14T10:49:54.205Z,10.63
2018-12-14T10:52:22.773Z,9.67
2018-12-14T10:54:51.182Z,9.37
2018-12-14T10:57:19.774Z,9.70
2018-12-14T10:59:48.115Z,9.10
2018-12-14T11:02:17.309Z,9.80
2018-12-14T11:04:45.843Z,9.23
2018-12-14T11:07:14.249Z,9.67
2018-12-14T11:09:42.609Z,8.87
2018-12-14T11:12:11.813Z,8.80
2018-12-14T11:14:40.208Z,8.53
2018-12-14T11:17:08.622Z,9.07
2018-12-14T11:19:36.965Z,9.47
2018-12-14T11:22:05.424Z,9.50
2018-12-14T11:24:33.762Z,9.10
2018-12-14T11:27:02.225Z,9.67
2018-12-14T11:29:30.601Z,10.60
2018-12-14T11:31:58.942Z,10.37
2018-12-14T11:34:29.883Z,10.63
2018-12-14T11:36:57.680Z,8.30
2018-12-14T11:39:26.101Z,9.30
2018-12-14T11:41:54.709Z,9.97
2018-12-14T11:44:23.349Z,8.70
2018-12-14T11:46:51.753Z,9.40
2018-12-14T11:49:20.096Z,10.47
2018-12-14T11:51:48.479Z,9.90
2018-12-14T11:54:17.515Z,9.57
2018-12-14T11:56:46.326Z,9.43
2018-12-14T11:59:14.691Z,8.80
2018-12-14T12:01:43.123Z,9.57
2018-12-14T12:04:11.674Z,9.27
2018-12-14T12:06:40.049Z,9.03
2018-12-14T12:09:11.298Z,9.90
2018-12-14T12:11:39.571Z,11.67
2018-12-14T12:14:07.868Z,9.63
2018-12-14T12:16:36.279Z,9.87
2018-12-14T12:19:04.633Z,10.07
2018-12-14T12:21:33.241Z,9.30
2018-12-14T12:24:01.668Z,9.60
2018-12-14T12:26:30.084Z,9.60
2018-12-14T12:28:58.547Z,8.97
2018-12-14T12:31:26.912Z,10.03
2018-12-14T12:33:55.331Z,9.13
2018-12-14T12:36:23.861Z,8.67
2018-12-14T12:38:52.174Z,9.10
2018-12-14T12:41:20.619Z,8.73
2018-12-14T12:43:49.451Z,8.97
2018-12-14T12:46:17.926Z,9.30
2018-12-14T12:48:46.498Z,7.60
2018-12-14T12:51:15.180Z,8.07
2018-12-14T12:53:44.067Z,11.17
2018-12-14T12:56:12.787Z,9.50
2018-12-14T12:58:41.135Z,9.60
2018-12-14T13:01:09.678Z,10.20
2018-12-14T13:03:38.048Z,10.27
2018-12-14T13:06:06.318Z,9.17
2018-12-14T13:08:34.648Z,10.10
2018-12-14T13:11:02.924Z,9.93
2018-12-14T13:13:31.381Z,10.47
2018-12-14T13:15:59.685Z,11.17
2018-12-14T13:18:28.338Z,11.60
2018-12-14T13:20:56.725Z,10.90
2018-12-14T13:23:25.275Z,11.00
2018-12-14T13:25:53.628Z,10.13
2018-12-14T13:28:22.221Z,9.63
2018-12-14T13:30:51.452Z,10.80
2018-12-14T13:33:20.653Z,9.70
2018-12-14T13:35:49.230Z,9.63
2018-12-14T13:38:17.686Z,10.27
2018-12-14T13:40:46.321Z,9.80
2018-12-14T13:43:14.631Z,9.40
2018-12-14T13:45:42.938Z,11.30
2018-12-14T13:48:11.254Z,8.43
2018-12-14T13:50:39.615Z,9.77
2018-12-14T13:53:07.994Z,9.23
2018-12-14T13:55:36.327Z,10.07
2018-12-14T13:58:05.160Z,10.23
2018-12-14T14:00:33.477Z,11.00
2018-12-14T14:03:02.393Z,11.00
2018-12-14T14:05:30.682Z,11.50
2018-12-14T14:07:59.006Z,11.00
2018-12-14T14:10:27.301Z,10.60
2018-12-14T14:12:55.778Z,11.33
2018-12-14T14:15:24.323Z,12.67
2018-12-14T14:17:52.666Z,13.77
2018-12-14T14:20:21.023Z,12.90
2018-12-14T14:22:50.150Z,13.90
2018-12-14T14:25:19.378Z,14.37
2018-12-14T14:27:47.690Z,14.60
2018-12-14T14:30:16.130Z,14.10
2018-12-14T14:32:44.434Z,15.63
2018-12-14T14:35:13.166Z,15.80
2018-12-14T14:37:41.621Z,15.97
2018-12-14T14:40:09.981Z,16.20
2018-12-14T14:42:38.396Z,16.83
2018-12-14T14:45:06.878Z,15.90
2018-12-14T14:47:35.613Z,16.43
2018-12-14T14:50:04.628Z,17.77
2018-12-14T14:52:32.935Z,18.17
2018-12-14T14:55:01.577Z,17.87
2018-12-14T14:57:31.134Z,19.63
2018-12-14T15:00:02.069Z,19.30
2018-12-14T15:02:33.115Z,19.17
2018-12-14T15:05:04.508Z,18.13
2018-12-14T15:07:38.165Z,18.57
2018-12-14T15:10:08.926Z,20.07
2018-12-14T15:12:41.733Z,20.27
2018-12-14T15:15:11.618Z,19.73
2018-12-14T15:17:43.280Z,19.87
2018-12-14T15:20:12.706Z,20.63
2018-12-14T15:22:45.225Z,20.50
2018-12-14T15:25:15.561Z,20.37
2018-12-14T15:27:45.413Z,20.37
2018-12-14T15:30:13.793Z,21.03
2018-12-14T15:32:42.355Z,20.70
2018-12-14T15:35:10.671Z,21.33
2018-12-14T15:37:38.983Z,21.47
2018-12-14T15:40:09.718Z,22.03
2018-12-14T15:42:38.168Z,23.60
2018-12-14T15:45:12.994Z,21.60
2018-12-14T15:47:37.720Z,25.43
2018-12-14T15:50:06.955Z,22.93
2018-12-14T15:52:35.869Z,23.07
2018-12-14T15:55:05.541Z,23.23
2018-12-14T15:57:33.921Z,23.30
2018-12-14T16:00:02.666Z,22.43
2018-12-14T16:02:30.965Z,23.03
2018-12-14T16:04:59.300Z,25.00
2018-12-14T16:07:28.548Z,22.70
2018-12-14T16:09:57.185Z,24.43
2018-12-14T16:12:25.569Z,23.60
2018-12-14T16:14:54.055Z,23.80
2018-12-14T16:17:22.578Z,24.40
2018-12-14T16:19:51.184Z,24.07
2018-12-14T16:22:20.319Z,24.60
2018-12-14T16:24:49.857Z,23.57
2018-12-14T16:27:18.382Z,24.37
2018-12-14T16:29:47.585Z,29.37
2018-12-14T16:32:16.402Z,24.23
2018-12-14T16:34:44.871Z,25.50
2018-12-14T16:37:13.232Z,23.67
2018-12-14T16:39:42.522Z,25.10
2018-12-14T16:42:10.993Z,23.83
2018-12-14T16:44:40.065Z,24.10
2018-12-14T16:47:08.579Z,24.33
2018-12-14T16:49:36.894Z,23.20
2018-12-14T16:52:05.493Z,24.30
2018-12-14T16:54:34.198Z,25.30
2018-12-14T16:57:03.186Z,24.90
2018-12-14T16:59:32.289Z,24.90
2018-12-14T17:02:00.654Z,23.83
2018-12-14T17:04:28.952Z,25.77
2018-12-14T17:06:57.325Z,24.10
2018-12-14T17:09:25.720Z,24.83
2018-12-14T17:11:54.069Z,27.57
2018-12-14T17:14:22.360Z,25.80
2018-12-14T17:16:51.169Z,25.70
2018-12-14T17:19:19.584Z,25.23
2018-12-14T17:21:47.955Z,24.77
2018-12-14T17:24:17.151Z,24.63
2018-12-14T17:26:45.516Z,25.67
2018-12-14T17:29:13.901Z,25.53
2018-12-14T17:31:42.261Z,25.53
2018-12-14T17:34:10.585Z,25.73
2018-12-14T17:36:39.722Z,25.47
2018-12-14T17:39:08.213Z,25.63
2018-12-14T17:41:36.667Z,24.77
2018-12-14T17:44:05.053Z,25.60
2018-12-14T17:46:33.881Z,26.70
2018-12-14T17:49:03.071Z,25.07
2018-12-14T17:51:32.753Z,25.33
2018-12-14T17:54:01.136Z,24.87
2018-12-14T17:56:29.688Z,24.80
2018-12-14T17:58:58.030Z,25.60
2018-12-14T18:01:26.335Z,26.30
2018-12-14T18:03:54.758Z,27.60
2018-12-14T18:06:23.093Z,25.50
2018-12-14T18:08:52.450Z,25.13
2018-12-14T18:11:20.883Z,24.87
2018-12-14T18:13:49.261Z,26.67
2018-12-14T18:16:17.871Z,27.20
2018-12-14T18:18:46.194Z,26.77
2018-12-14T18:21:18.150Z,26.27
2018-12-14T18:23:47.086Z,27.47
2018-12-14T18:26:16.941Z,26.83
2018-12-14T18:28:45.606Z,27.63
2018-12-14T18:31:14.109Z,27.40
2018-12-14T18:33:42.870Z,27.30
2018-12-14T18:36:11.749Z,29.00
2018-12-14T18:38:40.941Z,27.07
2018-12-14T18:41:09.674Z,26.17
2018-12-14T18:43:38.337Z,27.40
2018-12-14T18:46:07.229Z,26.87
2018-12-14T18:48:35.689Z,28.27
2018-12-14T18:51:04.306Z,27.57
2018-12-14T18:53:32.970Z,28.27
2018-12-14T18:56:01.844Z,28.13
2018-12-14T18:58:30.740Z,27.50
2018-12-14T19:00:59.514Z,27.70
2018-12-14T19:03:28.201Z,28.90
2018-12-14T19:05:57.198Z,29.93
2018-12-14T19:08:26.249Z,27.60
2018-12-14T19:10:54.788Z,28.37
2018-12-14T19:13:23.690Z,29.73
2018-12-14T19:15:52.665Z,28.10
2018-12-14T19:18:21.197Z,29.50
2018-12-14T19:20:50.372Z,28.67
2018-12-14T19:23:21.382Z,30.40
2018-12-14T19:25:50.386Z,30.00
2018-12-14T19:28:18.782Z,29.47
2018-12-14T19:30:47.168Z,28.13
2018-12-14T19:33:15.801Z,29.27
2018-12-14T19:35:44.861Z,29.50
2018-12-14T19:38:13.169Z,28.07
2018-12-14T19:40:42.485Z,28.07
2018-12-14T19:43:13.478Z,27.73
2018-12-14T19:45:42.390Z,28.63
2018-12-14T19:48:11.432Z,28.07
2018-12-14T19:50:40.914Z,26.67
2018-12-14T19:53:09.810Z,27.90
2018-12-14T19:55:38.267Z,28.60
2018-12-14T19:58:07.267Z,27.00
2018-12-14T20:00:36.671Z,30.73
2018-12-14T20:03:05.658Z,29.03
2018-12-14T20:05:34.165Z,29.67
2018-12-14T20:08:02.638Z,27.73
2018-12-14T20:10:31.505Z,30.40
2018-12-14T20:13:00.805Z,28.67
2018-12-14T20:15:30.170Z,29.10
2018-12-14T20:17:59.571Z,27.40
2018-12-14T20:20:29.140Z,28.40
2018-12-14T20:22:58.414Z,27.53
2018-12-14T20:25:27.017Z,28.70
2018-12-14T20:27:56.708Z,29.40
2018-12-14T20:30:25.853Z,28.63
2018-12-14T20:32:55.771Z,27.57
2018-12-14T20:35:24.614Z,27.20
2018-12-14T20:37:53.899Z,26.97
2018-12-14T20:40:22.854Z,25.93
2018-12-14T20:42:52.063Z,25.80
2018-12-14T20:45:22.380Z,27.90
2018-12-14T20:47:51.427Z,25.43
2018-12-14T20:50:19.920Z,26.50
2018-12-14T20:52:48.233Z,26.80
2018-12-14T20:55:17.141Z,25.80
2018-12-14T20:57:46.046Z,25.93
2018-12-14T21:00:15.770Z,26.47
2018-12-14T21:02:44.645Z,24.50
2018-12-14T21:05:14.459Z,23.67
2018-12-14T21:07:42.930Z,25.10
2018-12-14T21:10:11.290Z,24.50
2018-12-14T21:12:39.618Z,23.43
2018-12-14T21:15:10.059Z,24.93
2018-12-14T21:17:38.598Z,24.30
2018-12-14T21:20:07.902Z,24.70
2018-12-14T21:22:36.578Z,24.07
2018-12-14T21:25:05.415Z,23.57
2018-12-14T21:27:33.994Z,23.33
2018-12-14T21:30:02.650Z,23.60
2018-12-14T21:32:31.300Z,23.93
2018-12-14T21:35:00.175Z,24.07
2018-12-14T21:37:28.594Z,23.20
2018-12-14T21:39:57.091Z,24.20
2018-12-14T21:42:25.417Z,23.53
2018-12-14T21:44:54.384Z,22.70
2018-12-14T21:47:22.701Z,22.50
2018-12-14T21:49:51.193Z,22.47
2018-12-14T21:52:19.676Z,21.73
2018-12-14T21:54:48.666Z,22.57
2018-12-14T21:57:17.381Z,21.87
2018-12-14T21:59:46.640Z,21.90
2018-12-14T22:02:14.974Z,22.80
2018-12-14T22:04:43.921Z,21.77
2018-12-14T22:07:12.693Z,22.37
2018-12-14T22:09:41.068Z,22.60
2018-12-14T22:12:09.562Z,23.27
2018-12-14T22:14:38.190Z,22.60
2018-12-14T22:17:06.650Z,20.60
2018-12-14T22:19:35.025Z,21.77
2018-12-14T22:22:03.429Z,21.20
2018-12-14T22:24:32.577Z,21.33
2018-12-14T22:27:00.897Z,21.53
2018-12-14T22:29:29.281Z,20.83
2018-12-14T22:31:57.654Z,21.63
2018-12-14T22:34:25.936Z,20.17
2018-12-14T22:36:54.557Z,20.20
2018-12-14T22:39:24.208Z,19.50
2018-12-14T22:41:53.141Z,20.40
2018-12-14T22:44:21.655Z,19.83
2018-12-14T22:46:50.088Z,21.47
2018-12-14T22:49:18.532Z,20.33
2018-12-14T22:51:47.301Z,19.10
2018-12-14T22:54:15.692Z,19.83
2018-12-14T22:56:44.804Z,19.07
2018-12-14T22:59:13.174Z,19.07
2018-12-14T23:01:41.584Z,19.83
2018-12-14T23:04:09.903Z,19.67
2018-12-14T23:06:38.246Z,19.50
2018-12-14T23:09:07.205Z,19.97
2018-12-14T23:11:36.227Z,20.20
2018-12-14T23:14:04.870Z,19.70
2018-12-14T23:16:33.642Z,20.60
2018-12-14T23:19:02.349Z,18.50
2018-12-14T23:21:30.910Z,18.83
2018-12-14T23:23:59.504Z,18.30
2018-12-14T23:26:27.978Z,17.93
2018-12-14T23:28:56.990Z,18.27
2018-12-14T23:31:25.478Z,17.70
2018-12-14T23:33:54.490Z,17.60
2018-12-14T23:36:22.857Z,18.60
2018-12-14T23:38:51.564Z,17.67
2018-12-14T23:41:20.060Z,16.70
2018-12-14T23:43:49.133Z,16.20
2018-12-14T23:46:17.856Z,16.83
2018-12-14T23:48:46.659Z,15.93
2018-12-14T23:51:15.049Z,16.33
2018-12-14T23:53:43.438Z,15.77
2018-12-14T23:56:11.934Z,16.13
2018-12-14T23:58:40.358Z,16.80
